createdAt,value
2023-02-25T00:00:21.283Z,2.77
2023-02-25T00:03:10.273Z,2.75
2023-02-25T00:05:40.426Z,2.75
2023-02-25T00:08:09.456Z,2.75
2023-02-25T00:10:38.250Z,2.74
2023-02-25T00:13:17.777Z,2.74
2023-02-25T00:15:47.587Z,2.73
2023-02-25T00:18:16.788Z,2.72
2023-02-25T00:20:45.641Z,2.71
2023-02-25T00:23:14.572Z,2.70
2023-02-25T00:25:45.574Z,2.69
2023-02-25T00:28:15.976Z,2.69
2023-02-25T00:30:44.879Z,2.68
2023-02-25T00:33:14.280Z,2.67
2023-02-25T00:35:43.520Z,2.67
2023-02-25T00:38:16.004Z,2.68
2023-02-25T00:40:47.826Z,2.67
2023-02-25T00:43:16.646Z,2.67
2023-02-25T00:45:45.815Z,2.67
2023-02-25T00:48:15.263Z,2.66
2023-02-25T00:50:44.123Z,2.67
2023-02-25T00:53:12.927Z,2.67
2023-02-25T00:55:42.309Z,2.66
2023-02-25T00:58:11.984Z,2.66
2023-02-25T01:00:51.738Z,2.65
2023-02-25T01:03:21.634Z,2.65
2023-02-25T01:05:50.723Z,2.65
2023-02-25T01:08:20.617Z,2.65
2023-02-25T01:10:49.776Z,2.67
2023-02-25T01:13:18.707Z,2.67
2023-02-25T01:15:49.538Z,2.67
2023-02-25T01:18:20.087Z,2.68
2023-02-25T01:20:48.978Z,2.68
2023-02-25T01:23:17.767Z,2.66
2023-02-25T01:25:46.636Z,2.65
2023-02-25T01:28:15.918Z,2.65
2023-02-25T01:30:45.121Z,2.62
2023-02-25T01:33:14.190Z,2.62
2023-02-25T01:35:43.023Z,2.61
2023-02-25T01:38:12.350Z,2.59
2023-02-25T01:40:41.192Z,2.60
2023-02-25T01:43:15.552Z,2.58
2023-02-25T01:45:44.120Z,2.59
2023-02-25T01:48:17.246Z,2.55
2023-02-25T01:50:50.148Z,2.55
2023-02-25T01:53:24.418Z,2.54
2023-02-25T01:55:55.224Z,2.54
2023-02-25T01:58:25.415Z,2.52
2023-02-25T02:00:55.147Z,2.52
2023-02-25T02:03:28.208Z,2.50
2023-02-25T02:06:06.071Z,2.49
2023-02-25T02:08:36.884Z,2.48
2023-02-25T02:11:06.186Z,2.48
2023-02-25T02:13:38.543Z,2.48
2023-02-25T02:16:22.387Z,2.47
2023-02-25T02:18:57.361Z,2.46
2023-02-25T02:21:48.262Z,2.47
2023-02-25T02:24:45.929Z,2.46
2023-02-25T02:27:24.089Z,2.45
2023-02-25T02:30:25.829Z,2.45
2023-02-25T02:33:03.188Z,2.44
2023-02-25T02:35:39.290Z,2.44
2023-02-25T02:38:14.289Z,2.45
2023-02-25T02:40:57.962Z,2.45
2023-02-25T02:43:40.166Z,2.45
2023-02-25T02:46:18.145Z,2.43
2023-02-25T02:48:55.426Z,2.44
2023-02-25T02:51:31.798Z,2.45
2023-02-25T02:54:05.774Z,2.45
2023-02-25T02:56:39.013Z,2.46
2023-02-25T02:59:12.247Z,2.46
2023-02-25T03:01:45.980Z,2.46
2023-02-25T03:04:21.465Z,2.47
2023-02-25T03:06:56.340Z,2.47
2023-02-25T03:09:30.293Z,2.48
2023-02-25T03:12:00.111Z,2.50
2023-02-25T03:14:29.219Z,2.49
2023-02-25T03:17:05.261Z,2.49
2023-02-25T03:19:39.994Z,2.46
2023-02-25T03:22:15.864Z,2.43
2023-02-25T03:24:49.977Z,2.41
2023-02-25T03:27:25.813Z,2.41
2023-02-25T03:30:03.733Z,2.40
2023-02-25T03:32:41.182Z,2.37
2023-02-25T03:35:12.880Z,2.38
2023-02-25T03:37:44.282Z,2.36
2023-02-25T03:40:16.338Z,2.35
2023-02-25T03:42:49.900Z,2.32
2023-02-25T03:45:21.556Z,2.29
2023-02-25T03:47:51.265Z,2.26
2023-02-25T03:50:21.697Z,2.26
2023-02-25T03:52:55.510Z,2.24
2023-02-25T03:55:46.841Z,2.18
2023-02-25T03:58:18.375Z,2.14
2023-02-25T04:00:50.678Z,2.09
2023-02-25T04:03:20.077Z,2.04
2023-02-25T04:05:48.942Z,1.99
2023-02-25T04:08:19.091Z,1.96
2023-02-25T04:10:48.421Z,1.96
2023-02-25T04:13:20.357Z,1.90
2023-02-25T04:15:50.786Z,1.85
2023-02-25T04:18:19.739Z,1.82
2023-02-25T04:20:48.511Z,1.80
2023-02-25T04:23:17.648Z,1.76
2023-02-25T04:25:46.502Z,1.74
2023-02-25T04:28:15.442Z,1.71
2023-02-25T04:30:44.713Z,1.71
2023-02-25T04:33:14.115Z,1.68
2023-02-25T04:35:43.780Z,1.66
2023-02-25T04:38:12.614Z,1.64
2023-02-25T04:40:42.303Z,1.63
2023-02-25T04:43:14.190Z,1.60
2023-02-25T04:45:43.049Z,1.58
2023-02-25T04:48:12.044Z,1.57
2023-02-25T04:50:41.156Z,1.56
2023-02-25T04:53:09.977Z,1.54
2023-02-25T04:55:38.926Z,1.53
2023-02-25T04:58:07.769Z,1.52
2023-02-25T05:00:40.082Z,1.49
2023-02-25T05:03:08.873Z,1.47
2023-02-25T05:05:38.178Z,1.45
2023-02-25T05:08:07.089Z,1.42
2023-02-25T05:10:36.631Z,1.39
2023-02-25T05:13:06.090Z,1.39
2023-02-25T05:15:34.936Z,1.36
2023-02-25T05:18:04.939Z,1.35
2023-02-25T05:20:33.826Z,1.33
2023-02-25T05:23:02.671Z,1.34
2023-02-25T05:25:33.155Z,1.32
2023-02-25T05:28:02.048Z,1.31
2023-02-25T05:30:31.025Z,1.32
2023-02-25T05:32:59.841Z,1.32
2023-02-25T05:35:28.652Z,1.33
2023-02-25T05:37:57.986Z,1.33
2023-02-25T05:40:27.187Z,1.32
2023-02-25T05:42:57.465Z,1.31
2023-02-25T05:45:26.306Z,1.31
2023-02-25T05:47:56.847Z,1.31
2023-02-25T05:50:25.631Z,1.30
2023-02-25T05:52:54.669Z,1.29
2023-02-25T05:55:26.568Z,1.29
2023-02-25T05:57:55.385Z,1.31
2023-02-25T06:00:24.449Z,1.31
2023-02-25T06:02:53.298Z,1.32
2023-02-25T06:05:22.082Z,1.33
2023-02-25T06:07:51.041Z,1.34
2023-02-25T06:10:21.784Z,1.34
2023-02-25T06:12:50.927Z,1.37
2023-02-25T06:15:20.397Z,1.38
2023-02-25T06:17:49.760Z,1.39
2023-02-25T06:20:19.166Z,1.42
2023-02-25T06:22:48.113Z,1.42
2023-02-25T06:25:17.122Z,1.42
2023-02-25T06:27:45.917Z,1.44
2023-02-25T06:30:15.234Z,1.46
2023-02-25T06:32:44.184Z,1.48
2023-02-25T06:35:14.076Z,1.50
2023-02-25T06:37:43.070Z,1.51
2023-02-25T06:40:15.145Z,1.51
2023-02-25T06:42:44.326Z,1.53
2023-02-25T06:45:13.255Z,1.54
2023-02-25T06:47:42.362Z,1.55
2023-02-25T06:50:12.867Z,1.57
2023-02-25T06:52:41.657Z,1.58
2023-02-25T06:55:11.673Z,1.58
2023-02-25T06:57:49.352Z,1.59
2023-02-25T07:00:19.773Z,1.60
2023-02-25T07:02:48.674Z,1.62
2023-02-25T07:05:17.860Z,1.64
2023-02-25T07:07:47.149Z,1.68
2023-02-25T07:10:16.145Z,1.70
2023-02-25T07:12:45.362Z,1.73
2023-02-25T07:15:14.252Z,1.74
2023-02-25T07:17:43.158Z,1.78
2023-02-25T07:20:13.810Z,1.79
2023-02-25T07:22:43.125Z,1.83
2023-02-25T07:25:12.682Z,1.85
2023-02-25T07:27:45.676Z,1.87
2023-02-25T07:30:15.511Z,1.88
2023-02-25T07:32:45.186Z,1.89
2023-02-25T07:35:14.789Z,1.91
2023-02-25T07:37:43.688Z,1.96
2023-02-25T07:40:15.969Z,2.07
2023-02-25T07:42:45.149Z,2.16
2023-02-25T07:45:14.530Z,2.22
2023-02-25T07:47:43.477Z,2.26
2023-02-25T07:50:13.311Z,2.28
2023-02-25T07:52:42.373Z,2.31
2023-02-25T07:55:12.571Z,2.33
2023-02-25T07:57:42.050Z,2.35
2023-02-25T08:00:13.386Z,2.37
2023-02-25T08:02:43.389Z,2.39
2023-02-25T08:05:12.416Z,2.41
2023-02-25T08:07:41.230Z,2.45
2023-02-25T08:10:12.173Z,2.49
2023-02-25T08:12:42.615Z,2.57
2023-02-25T08:15:12.508Z,2.62
2023-02-25T08:17:41.377Z,2.66
2023-02-25T08:20:14.198Z,2.66
2023-02-25T08:22:43.115Z,2.70
2023-02-25T08:25:11.973Z,2.75
2023-02-25T08:27:43.543Z,2.77
2023-02-25T08:30:14.634Z,2.85
2023-02-25T08:32:43.777Z,2.96
2023-02-25T08:35:13.795Z,3.06
2023-02-25T08:37:44.903Z,3.19
2023-02-25T08:40:14.471Z,3.28
2023-02-25T08:42:43.832Z,3.38
2023-02-25T08:45:13.001Z,3.46
2023-02-25T08:47:42.046Z,3.48
2023-02-25T08:50:12.676Z,3.49
2023-02-25T08:52:42.335Z,3.51
2023-02-25T08:55:14.324Z,3.54
2023-02-25T08:57:43.971Z,3.56
2023-02-25T09:00:15.434Z,3.58
2023-02-25T09:02:44.552Z,3.58
2023-02-25T09:05:13.848Z,3.62
2023-02-25T09:07:42.785Z,3.62
2023-02-25T09:10:13.608Z,3.65
2023-02-25T09:12:45.979Z,3.68
2023-02-25T09:15:15.202Z,3.77
2023-02-25T09:17:44.011Z,3.87
2023-02-25T09:20:13.068Z,3.99
2023-02-25T09:22:41.896Z,4.11
2023-02-25T09:25:11.467Z,4.28
2023-02-25T09:27:44.246Z,4.63
2023-02-25T09:30:14.899Z,5.18
2023-02-25T09:32:44.874Z,5.30
2023-02-25T09:35:13.910Z,5.45
2023-02-25T09:37:42.760Z,5.44
2023-02-25T09:40:16.715Z,5.36
2023-02-25T09:42:53.408Z,5.22
2023-02-25T09:45:25.014Z,5.03
2023-02-25T09:47:58.530Z,4.87
2023-02-25T09:50:32.071Z,4.84
2023-02-25T09:53:10.939Z,4.84
2023-02-25T09:55:44.554Z,4.91
2023-02-25T09:58:24.135Z,4.97
2023-02-25T10:01:01.880Z,5.03
2023-02-25T10:03:45.668Z,5.02
2023-02-25T10:06:22.233Z,5.02
2023-02-25T10:08:59.489Z,5.00
2023-02-25T10:11:41.031Z,4.96
2023-02-25T10:14:22.249Z,4.87
2023-02-25T10:16:59.442Z,4.81
2023-02-25T10:19:43.233Z,4.75
2023-02-25T10:22:34.119Z,4.64
2023-02-25T10:25:12.047Z,4.50
2023-02-25T10:27:50.550Z,4.39
2023-02-25T10:30:26.212Z,4.29
2023-02-25T10:32:55.777Z,4.28
2023-02-25T10:35:28.145Z,4.31
2023-02-25T10:37:56.987Z,4.36
2023-02-25T10:40:28.751Z,4.40
2023-02-25T10:43:01.558Z,4.42
2023-02-25T10:45:32.396Z,4.44
2023-02-25T10:48:06.931Z,4.46
2023-02-25T10:50:45.395Z,4.46
2023-02-25T10:53:17.286Z,4.44
2023-02-25T10:55:51.756Z,4.43
2023-02-25T10:58:28.245Z,4.34
2023-02-25T11:01:01.661Z,4.27
2023-02-25T11:03:32.901Z,4.20
2023-02-25T11:06:20.676Z,4.17
2023-02-25T11:08:52.221Z,4.21
2023-02-25T11:11:24.219Z,4.22
2023-02-25T11:14:05.294Z,4.23
2023-02-25T11:16:37.488Z,4.31
2023-02-25T11:19:17.633Z,4.42
2023-02-25T11:21:47.766Z,4.45
2023-02-25T11:24:23.320Z,4.48
2023-02-25T11:26:53.436Z,4.55
2023-02-25T11:29:26.092Z,4.60
2023-02-25T11:31:59.556Z,4.69
2023-02-25T11:34:31.264Z,4.79
2023-02-25T11:37:24.692Z,4.84
2023-02-25T11:39:56.281Z,4.91
2023-02-25T11:42:26.850Z,5.06
2023-02-25T11:45:01.918Z,5.15
2023-02-25T11:47:33.729Z,5.18
2023-02-25T11:50:24.024Z,5.15
2023-02-25T11:53:04.015Z,5.06
2023-02-25T11:55:53.303Z,4.90
2023-02-25T11:58:37.722Z,4.69
2023-02-25T12:01:17.329Z,4.47
2023-02-25T12:04:05.804Z,4.28
2023-02-25T12:06:51.931Z,4.17
2023-02-25T12:09:43.124Z,4.13
2023-02-25T12:12:44.265Z,4.13
2023-02-25T12:16:03.844Z,4.10
2023-02-25T12:19:14.828Z,3.96
2023-02-25T12:22:12.486Z,3.91
2023-02-25T12:25:12.387Z,3.92
2023-02-25T12:27:54.398Z,3.88
2023-02-25T12:30:52.420Z,3.89
2023-02-25T12:33:56.703Z,3.98
2023-02-25T12:36:42.334Z,4.13
2023-02-25T12:39:26.667Z,4.18
2023-02-25T12:42:05.499Z,4.30
2023-02-25T12:45:09.882Z,4.43
2023-02-25T12:47:57.465Z,4.62
2023-02-25T12:50:52.615Z,4.74
2023-02-25T12:53:37.875Z,4.89
2023-02-25T12:56:28.651Z,5.01
2023-02-25T12:59:11.574Z,5.00
2023-02-25T13:02:12.732Z,4.85
2023-02-25T13:04:58.517Z,4.66
2023-02-25T13:07:48.650Z,4.50
2023-02-25T13:10:34.621Z,4.42
2023-02-25T13:13:20.292Z,4.43
2023-02-25T13:16:04.231Z,4.41
2023-02-25T13:18:41.851Z,4.48
2023-02-25T13:21:35.543Z,4.57
2023-02-25T13:24:17.537Z,4.60
2023-02-25T13:27:13.495Z,4.51
2023-02-25T13:30:12.828Z,4.36
2023-02-25T13:32:54.656Z,4.22
2023-02-25T13:35:38.786Z,4.14
2023-02-25T13:38:23.680Z,4.17
2023-02-25T13:41:06.589Z,4.21
2023-02-25T13:44:05.655Z,4.22
2023-02-25T13:46:52.809Z,4.18
2023-02-25T13:49:50.940Z,4.18
2023-02-25T13:52:28.633Z,4.26
2023-02-25T13:55:23.491Z,4.22
2023-02-25T13:58:13.061Z,4.17
2023-02-25T14:01:00.158Z,4.17
2023-02-25T14:04:19.259Z,4.16
2023-02-25T14:07:10.836Z,4.29
2023-02-25T14:09:46.115Z,4.37
2023-02-25T14:12:33.603Z,4.34
2023-02-25T14:15:32.572Z,4.17
2023-02-25T14:18:20.006Z,3.99
2023-02-25T14:21:05.447Z,3.88
2023-02-25T14:23:45.893Z,3.80
2023-02-25T14:26:30.534Z,3.81
2023-02-25T14:29:20.311Z,3.80
2023-02-25T14:32:01.865Z,3.77
2023-02-25T14:34:56.375Z,3.74
2023-02-25T14:37:39.587Z,3.70
2023-02-25T14:40:25.593Z,3.71
2023-02-25T14:43:26.659Z,3.66
2023-02-25T14:46:00.707Z,3.60
2023-02-25T14:48:39.272Z,3.56
2023-02-25T14:51:35.094Z,3.47
2023-02-25T14:54:41.550Z,3.39
2023-02-25T14:57:45.147Z,3.30
2023-02-25T15:00:51.541Z,3.19
2023-02-25T15:03:50.454Z,3.13
2023-02-25T15:06:37.242Z,3.09
2023-02-25T15:09:31.021Z,3.08
2023-02-25T15:12:16.832Z,3.03
2023-02-25T15:15:26.217Z,2.98
2023-02-25T15:18:22.906Z,2.92
2023-02-25T15:20:53.071Z,2.87
2023-02-25T15:23:41.141Z,2.85
2023-02-25T15:26:23.811Z,2.82
2023-02-25T15:28:54.930Z,2.80
2023-02-25T15:31:30.265Z,2.80
2023-02-25T15:34:38.074Z,2.81
2023-02-25T15:37:29.881Z,2.81
2023-02-25T15:40:02.267Z,2.81
2023-02-25T15:42:48.045Z,2.81
2023-02-25T15:45:52.111Z,2.81
2023-02-25T15:48:39.311Z,2.78
2023-02-25T15:51:32.241Z,2.77
2023-02-25T15:54:02.686Z,2.78
2023-02-25T15:56:48.111Z,2.77
2023-02-25T15:59:43.285Z,2.76
2023-02-25T16:02:45.884Z,2.72
2023-02-25T16:05:25.146Z,2.69
2023-02-25T16:08:13.363Z,2.63
2023-02-25T16:10:46.162Z,2.61
2023-02-25T16:13:21.749Z,2.57
2023-02-25T16:15:55.921Z,2.57
2023-02-25T16:18:27.287Z,2.55
2023-02-25T16:21:05.768Z,2.52
2023-02-25T16:23:40.622Z,2.51
2023-02-25T16:26:22.137Z,2.49
2023-02-25T16:29:00.518Z,2.49
2023-02-25T16:31:38.996Z,2.49
2023-02-25T16:34:16.717Z,2.49
2023-02-25T16:36:54.526Z,2.49
2023-02-25T16:39:29.944Z,2.46
2023-02-25T16:42:06.022Z,2.45
2023-02-25T16:44:38.667Z,2.44
2023-02-25T16:47:23.601Z,2.40
2023-02-25T16:49:54.734Z,2.37
2023-02-25T16:52:29.919Z,2.34
2023-02-25T16:55:04.791Z,2.31
2023-02-25T16:57:38.394Z,2.26
2023-02-25T17:00:16.606Z,2.21
2023-02-25T17:02:47.530Z,2.15
2023-02-25T17:05:29.959Z,2.11
2023-02-25T17:08:01.591Z,2.06
2023-02-25T17:10:33.359Z,2.03
2023-02-25T17:13:04.278Z,2.01
2023-02-25T17:15:35.316Z,1.99
2023-02-25T17:18:09.991Z,1.98
2023-02-25T17:20:41.534Z,1.97
2023-02-25T17:23:12.294Z,1.99
2023-02-25T17:25:45.556Z,2.00
2023-02-25T17:28:21.761Z,2.02
2023-02-25T17:30:54.640Z,2.03
2023-02-25T17:33:26.995Z,2.04
2023-02-25T17:35:59.835Z,2.06
2023-02-25T17:38:30.502Z,2.08
2023-02-25T17:41:00.324Z,2.11
2023-02-25T17:43:36.801Z,2.11
2023-02-25T17:46:21.390Z,2.12
2023-02-25T17:48:55.607Z,2.11
2023-02-25T17:51:33.371Z,2.09
2023-02-25T17:54:08.402Z,2.07
2023-02-25T17:56:42.911Z,2.05
2023-02-25T17:59:38.119Z,2.02
2023-02-25T18:02:29.268Z,1.95
2023-02-25T18:05:21.770Z,1.93
2023-02-25T18:08:10.536Z,1.91
2023-02-25T18:10:46.269Z,1.87
2023-02-25T18:13:24.238Z,1.84
2023-02-25T18:16:34.292Z,1.84
2023-02-25T18:19:23.311Z,1.84
2023-02-25T18:21:53.399Z,1.83
2023-02-25T18:24:29.094Z,1.83
2023-02-25T18:27:26.536Z,1.82
2023-02-25T18:29:59.655Z,1.82
2023-02-25T18:32:28.963Z,1.82
2023-02-25T18:34:58.641Z,1.83
2023-02-25T18:37:31.716Z,1.81
2023-02-25T18:40:01.083Z,1.81
2023-02-25T18:42:30.397Z,1.80
2023-02-25T18:44:59.478Z,1.81
2023-02-25T18:47:33.125Z,1.82
2023-02-25T18:50:02.370Z,1.84
2023-02-25T18:52:31.651Z,1.86
2023-02-25T18:55:00.720Z,1.88
2023-02-25T18:57:30.156Z,1.89
2023-02-25T18:59:59.205Z,1.91
2023-02-25T19:02:31.685Z,1.92
2023-02-25T19:05:02.666Z,1.92
2023-02-25T19:07:34.514Z,1.93
2023-02-25T19:10:07.391Z,1.94
2023-02-25T19:12:40.666Z,1.94
2023-02-25T19:15:15.756Z,1.93
2023-02-25T19:17:45.907Z,1.91
2023-02-25T19:20:20.904Z,1.89
2023-02-25T19:22:52.623Z,1.88
2023-02-25T19:25:23.933Z,1.86
2023-02-25T19:27:55.745Z,1.81
2023-02-25T19:30:28.652Z,1.79
2023-02-25T19:33:03.532Z,1.80
2023-02-25T19:35:39.025Z,1.77
2023-02-25T19:38:11.542Z,1.73
2023-02-25T19:40:40.641Z,1.72
2023-02-25T19:43:09.895Z,1.70
2023-02-25T19:45:42.137Z,1.70
2023-02-25T19:48:11.647Z,1.69
2023-02-25T19:50:42.315Z,1.68
2023-02-25T19:53:11.738Z,1.66
2023-02-25T19:55:43.750Z,1.65
2023-02-25T19:58:12.953Z,1.66
2023-02-25T20:00:46.841Z,1.64
2023-02-25T20:03:16.529Z,1.64
2023-02-25T20:05:45.495Z,1.63
2023-02-25T20:08:14.406Z,1.63
2023-02-25T20:10:44.145Z,1.61
2023-02-25T20:13:13.656Z,1.61
2023-02-25T20:15:42.508Z,1.60
2023-02-25T20:18:11.658Z,1.59
2023-02-25T20:20:42.704Z,1.59
2023-02-25T20:23:12.028Z,1.60
2023-02-25T20:25:42.020Z,1.59
2023-02-25T20:28:11.876Z,1.59
2023-02-25T20:30:40.848Z,1.59
2023-02-25T20:33:11.510Z,1.59
2023-02-25T20:35:42.640Z,1.57
2023-02-25T20:38:29.531Z,1.56
2023-02-25T20:40:59.529Z,1.54
2023-02-25T20:43:28.926Z,1.54
2023-02-25T20:45:58.697Z,1.54
2023-02-25T20:48:32.264Z,1.54
2023-02-25T20:51:01.792Z,1.52
2023-02-25T20:53:32.851Z,1.50
2023-02-25T20:56:01.886Z,1.48
2023-02-25T20:58:31.491Z,1.45
2023-02-25T21:01:00.902Z,1.43
2023-02-25T21:03:30.932Z,1.39
2023-02-25T21:06:00.588Z,1.35
2023-02-25T21:08:29.844Z,1.32
2023-02-25T21:10:59.374Z,1.29
2023-02-25T21:13:28.927Z,1.25
2023-02-25T21:16:00.393Z,1.22
2023-02-25T21:18:31.429Z,1.18
2023-02-25T21:21:07.760Z,1.17
2023-02-25T21:23:39.039Z,1.14
2023-02-25T21:26:09.734Z,1.14
2023-02-25T21:28:41.049Z,1.13
2023-02-25T21:31:12.073Z,1.11
2023-02-25T21:33:42.186Z,1.10
2023-02-25T21:36:12.457Z,1.09
2023-02-25T21:38:41.739Z,1.08
2023-02-25T21:41:12.930Z,1.08
2023-02-25T21:43:43.010Z,1.08
2023-02-25T21:46:18.284Z,1.04
2023-02-25T21:48:55.158Z,1.02
2023-02-25T21:51:25.977Z,1.00
2023-02-25T21:53:56.748Z,0.99
2023-02-25T21:56:27.434Z,0.97
2023-02-25T21:58:58.591Z,0.94
2023-02-25T22:01:29.931Z,0.89
2023-02-25T22:03:59.754Z,0.85
2023-02-25T22:06:29.559Z,0.82
2023-02-25T22:08:59.169Z,0.79
2023-02-25T22:11:31.208Z,0.75
2023-02-25T22:14:02.336Z,0.73
2023-02-25T22:16:31.620Z,0.72
2023-02-25T22:19:00.678Z,0.72
2023-02-25T22:21:31.814Z,0.71
2023-02-25T22:24:02.487Z,0.71
2023-02-25T22:26:34.605Z,0.68
2023-02-25T22:29:06.842Z,0.65
2023-02-25T22:31:40.877Z,0.65
2023-02-25T22:34:11.195Z,0.63
2023-02-25T22:36:43.748Z,0.61
2023-02-25T22:39:20.117Z,0.58
2023-02-25T22:41:53.852Z,0.57
2023-02-25T22:44:23.629Z,0.54
2023-02-25T22:46:55.290Z,0.49
2023-02-25T22:49:26.363Z,0.46
2023-02-25T22:51:56.627Z,0.44
2023-02-25T22:54:27.722Z,0.42
2023-02-25T22:56:59.671Z,0.41
2023-02-25T22:59:29.067Z,0.39
2023-02-25T23:01:59.871Z,0.38
2023-02-25T23:04:30.846Z,0.36
2023-02-25T23:07:04.612Z,0.34
2023-02-25T23:09:33.750Z,0.31
2023-02-25T23:12:03.577Z,0.28
2023-02-25T23:14:35.101Z,0.28
2023-02-25T23:17:04.107Z,0.27
2023-02-25T23:19:33.099Z,0.25
2023-02-25T23:22:03.849Z,0.23
2023-02-25T23:24:33.459Z,0.20
2023-02-25T23:27:03.300Z,0.18
2023-02-25T23:29:32.439Z,0.18
2023-02-25T23:32:02.385Z,0.17
2023-02-25T23:34:31.912Z,0.15
2023-02-25T23:37:04.597Z,0.14
2023-02-25T23:39:34.191Z,0.14
2023-02-25T23:42:03.191Z,0.14
2023-02-25T23:44:32.248Z,0.13
2023-02-25T23:47:01.827Z,0.12
2023-02-25T23:49:31.357Z,0.12
2023-02-25T23:52:08.433Z,0.11
2023-02-25T23:54:38.610Z,0.10
2023-02-25T23:57:07.752Z,0.08
2023-02-25T23:59:37.838Z,0.07
